createdAt,value
2017-06-15T00:00:39.982Z,18.45
2017-06-15T00:01:48.940Z,18.51
2017-06-15T00:02:59.729Z,18.44
2017-06-15T00:04:08.733Z,18.37
2017-06-15T00:05:20.335Z,18.42
2017-06-15T00:06:29.349Z,18.39
2017-06-15T00:07:40.535Z,18.36
2017-06-15T00:08:49.492Z,18.29
2017-06-15T00:10:03.390Z,18.36
2017-06-15T00:11:16.230Z,18.37
2017-06-15T00:12:25.186Z,18.35
2017-06-15T00:13:34.507Z,18.39
2017-06-15T00:14:43.743Z,18.29
2017-06-15T00:15:57.822Z,18.42
2017-06-15T00:17:06.779Z,18.37
2017-06-15T00:18:15.763Z,18.37
2017-06-15T00:19:24.742Z,18.35
2017-06-15T00:20:33.783Z,18.35
2017-06-15T00:21:42.740Z,18.25
2017-06-15T00:22:51.703Z,18.27
2017-06-15T00:24:00.659Z,18.17
2017-06-15T00:25:09.617Z,18.17
2017-06-15T00:26:18.579Z,18.12
2017-06-15T00:27:27.908Z,18.2
2017-06-15T00:28:36.862Z,18.15
2017-06-15T00:29:45.820Z,18.14
2017-06-15T00:30:54.774Z,18.15
2017-06-15T00:32:03.737Z,18.11
2017-06-15T00:33:12.695Z,18.12
2017-06-15T00:34:21.653Z,18.11
2017-06-15T00:35:30.608Z,18.08
2017-06-15T00:36:39.568Z,18.1
2017-06-15T00:37:48.850Z,18.07
2017-06-15T00:38:57.857Z,18.08
2017-06-15T00:40:06.815Z,18.03
2017-06-15T00:41:15.767Z,18.03
2017-06-15T00:42:24.722Z,18.05
2017-06-15T00:43:33.679Z,17.97
2017-06-15T00:44:42.633Z,18
2017-06-15T00:45:51.590Z,17.92
2017-06-15T00:47:00.549Z,17.95
2017-06-15T00:48:09.508Z,17.99
2017-06-15T00:49:18.556Z,17.92
2017-06-15T00:50:27.514Z,17.95
2017-06-15T00:51:36.468Z,18
2017-06-15T00:52:45.430Z,17.97
2017-06-15T00:53:54.386Z,17.95
2017-06-15T00:55:03.341Z,17.96
2017-06-15T00:56:12.344Z,18.07
2017-06-15T00:57:21.299Z,17.99
2017-06-15T00:58:30.257Z,18
2017-06-15T00:59:39.215Z,18
2017-06-15T01:00:48.260Z,17.97
2017-06-15T01:01:57.272Z,18.02
2017-06-15T01:03:06.230Z,18.02
2017-06-15T01:04:15.189Z,18.02
2017-06-15T01:05:24.320Z,18.02
2017-06-15T01:06:33.278Z,18.08
2017-06-15T01:07:42.238Z,17.93
2017-06-15T01:08:51.195Z,17.99
2017-06-15T01:10:00.150Z,17.96
2017-06-15T01:11:09.108Z,17.92
2017-06-15T01:12:18.062Z,17.92
2017-06-15T01:13:27.014Z,18
2017-06-15T01:14:35.968Z,17.97
2017-06-15T01:15:44.924Z,18
2017-06-15T01:16:53.878Z,17.93
2017-06-15T01:18:02.925Z,18
2017-06-15T01:19:11.881Z,17.9
2017-06-15T01:20:20.840Z,17.92
2017-06-15T01:21:29.797Z,17.87
2017-06-15T01:22:38.837Z,17.96
2017-06-15T01:23:47.795Z,17.87
2017-06-15T01:24:56.799Z,17.86
2017-06-15T01:26:05.759Z,17.92
2017-06-15T01:27:14.715Z,17.92
2017-06-15T01:28:23.669Z,17.81
2017-06-15T01:29:33.229Z,17.82
2017-06-15T01:30:42.234Z,17.82
2017-06-15T01:31:51.191Z,17.89
2017-06-15T01:33:00.151Z,17.86
2017-06-15T01:34:09.435Z,17.87
2017-06-15T01:35:18.389Z,17.89
2017-06-15T01:36:27.344Z,17.89
2017-06-15T01:37:36.301Z,17.84
2017-06-15T01:38:45.260Z,17.86
2017-06-15T01:39:54.219Z,17.89
2017-06-15T01:41:03.174Z,17.78
2017-06-15T01:42:12.501Z,17.86
2017-06-15T01:43:21.464Z,17.78
2017-06-15T01:44:30.467Z,17.75
2017-06-15T01:45:39.422Z,17.79
2017-06-15T01:46:48.373Z,17.78
2017-06-15T01:47:57.390Z,17.71
2017-06-15T01:49:06.347Z,17.66
2017-06-15T01:50:15.307Z,17.72
2017-06-15T01:51:24.266Z,17.66
2017-06-15T01:52:33.227Z,17.74
2017-06-15T01:53:42.178Z,17.7
2017-06-15T01:54:51.132Z,17.71
2017-06-15T01:56:00.084Z,17.7
2017-06-15T01:57:09.040Z,17.55
2017-06-15T01:58:17.996Z,17.63
2017-06-15T01:59:26.950Z,17.55
2017-06-15T02:00:35.906Z,17.56
2017-06-15T02:01:44.862Z,17.48
2017-06-15T02:02:53.816Z,17.52
2017-06-15T02:04:02.769Z,17.59
2017-06-15T02:05:11.778Z,17.55
2017-06-15T02:06:20.733Z,17.63
2017-06-15T02:07:29.689Z,17.58
2017-06-15T02:08:38.641Z,17.62
2017-06-15T02:09:47.601Z,17.64
2017-06-15T02:10:56.555Z,17.63
2017-06-15T02:12:05.510Z,17.59
2017-06-15T02:13:14.481Z,17.58
2017-06-15T02:14:23.439Z,17.58
2017-06-15T02:15:32.733Z,17.51
2017-06-15T02:16:41.690Z,17.51
2017-06-15T02:17:50.965Z,17.48
2017-06-15T02:18:59.918Z,17.44
2017-06-15T02:20:08.871Z,17.44
2017-06-15T02:21:17.822Z,17.54
2017-06-15T02:22:26.832Z,17.49
2017-06-15T02:23:35.790Z,17.52
2017-06-15T02:24:44.747Z,17.41
2017-06-15T02:25:53.699Z,17.4
2017-06-15T02:27:02.739Z,17.46
2017-06-15T02:28:11.742Z,17.38
2017-06-15T02:29:20.699Z,17.43
2017-06-15T02:30:29.653Z,17.41
2017-06-15T02:31:38.613Z,17.41
2017-06-15T02:32:47.565Z,17.43
2017-06-15T02:33:56.569Z,17.43
2017-06-15T02:35:05.526Z,17.43
2017-06-15T02:36:14.482Z,17.38
2017-06-15T02:37:23.433Z,17.4
2017-06-15T02:38:32.394Z,17.36
2017-06-15T02:39:41.351Z,17.41
2017-06-15T02:40:50.305Z,17.3
2017-06-15T02:41:59.259Z,17.34
2017-06-15T02:43:08.219Z,17.31
2017-06-15T02:44:17.175Z,17.34
2017-06-15T02:45:26.133Z,17.25
2017-06-15T02:46:35.089Z,17.25
2017-06-15T02:47:44.045Z,17.3
2017-06-15T02:48:52.999Z,17.25
2017-06-15T02:50:01.952Z,17.3
2017-06-15T02:51:10.960Z,17.25
2017-06-15T02:52:19.914Z,17.33
2017-06-15T02:53:28.872Z,17.19
2017-06-15T02:54:37.825Z,17.21
2017-06-15T02:55:46.777Z,17.22
2017-06-15T02:56:55.783Z,17.16
2017-06-15T02:58:04.918Z,17.19
2017-06-15T02:59:13.876Z,17.19
2017-06-15T03:00:22.830Z,17.18
2017-06-15T03:01:31.871Z,17.19
2017-06-15T03:02:40.826Z,17.22
2017-06-15T03:03:49.779Z,17.25
2017-06-15T03:04:58.768Z,17.23
2017-06-15T03:06:07.735Z,17.19
2017-06-15T03:07:16.694Z,17.23
2017-06-15T03:08:25.648Z,17.15
2017-06-15T03:09:34.603Z,17.14
2017-06-15T03:10:43.559Z,17.22
2017-06-15T03:11:52.515Z,17.21
2017-06-15T03:13:01.474Z,17.18
2017-06-15T03:14:10.566Z,17.22
2017-06-15T03:15:19.517Z,17.22
2017-06-15T03:16:28.473Z,17.15
2017-06-15T03:17:37.427Z,17.22
2017-06-15T03:18:46.710Z,17.08
2017-06-15T03:19:55.664Z,17.21
2017-06-15T03:21:04.621Z,17.23
2017-06-15T03:22:13.660Z,17.19
2017-06-15T03:23:22.613Z,17.11
2017-06-15T03:24:31.569Z,17.26
2017-06-15T03:25:40.577Z,17.19
2017-06-15T03:26:49.536Z,17.26
2017-06-15T03:27:58.490Z,17.26
2017-06-15T03:29:07.534Z,17.21
2017-06-15T03:30:16.494Z,17.19
2017-06-15T03:31:25.503Z,17.18
2017-06-15T03:32:34.461Z,17.23
2017-06-15T03:33:43.418Z,17.21
2017-06-15T03:34:52.458Z,17.28
2017-06-15T03:36:01.410Z,17.3
2017-06-15T03:37:10.452Z,17.25
2017-06-15T03:38:19.413Z,17.33
2017-06-15T03:39:28.372Z,17.33
2017-06-15T03:40:37.331Z,17.31
2017-06-15T03:41:46.286Z,17.34
2017-06-15T03:42:55.238Z,17.38
2017-06-15T03:44:04.285Z,17.41
2017-06-15T03:45:13.239Z,17.41
2017-06-15T03:46:22.193Z,17.51
2017-06-15T03:47:31.149Z,17.49
2017-06-15T03:48:40.148Z,17.46
2017-06-15T03:49:49.105Z,17.58
2017-06-15T03:50:58.061Z,17.59
2017-06-15T03:52:07.015Z,17.59
2017-06-15T03:53:16.057Z,17.68
2017-06-15T03:54:25.059Z,17.63
2017-06-15T03:55:34.011Z,17.71
2017-06-15T03:56:43.293Z,17.75
2017-06-15T03:57:52.575Z,17.64
2017-06-15T03:59:01.529Z,17.75
2017-06-15T04:00:10.490Z,17.75
2017-06-15T04:01:19.446Z,17.74
2017-06-15T04:02:28.486Z,17.78
2017-06-15T04:03:37.443Z,17.86
2017-06-15T04:04:46.403Z,17.87
2017-06-15T04:05:55.358Z,17.87
2017-06-15T04:07:04.310Z,17.93
2017-06-15T04:08:13.263Z,17.86
2017-06-15T04:09:22.216Z,17.89
2017-06-15T04:10:31.498Z,17.97
2017-06-15T04:11:40.452Z,17.93
2017-06-15T04:12:49.422Z,17.96
2017-06-15T04:13:58.377Z,18.02
2017-06-15T04:15:07.418Z,18.03
2017-06-15T04:16:16.377Z,18
2017-06-15T04:17:25.420Z,18.03
2017-06-15T04:18:34.374Z,18.11
2017-06-15T04:19:43.326Z,18.15
2017-06-15T04:20:52.369Z,18.15
2017-06-15T04:22:01.327Z,18.14
2017-06-15T04:23:10.332Z,18.14
2017-06-15T04:24:19.285Z,18.1
2017-06-15T04:25:28.268Z,18.15
2017-06-15T04:26:37.224Z,18.21
2017-06-15T04:27:46.181Z,18.21
2017-06-15T04:28:55.135Z,18.33
2017-06-15T04:30:04.091Z,18.25
2017-06-15T04:31:13.050Z,18.36
2017-06-15T04:32:22.004Z,18.32
2017-06-15T04:33:30.963Z,18.33
2017-06-15T04:34:40.060Z,18.35
2017-06-15T04:35:49.018Z,18.41
2017-06-15T04:36:57.976Z,18.44
2017-06-15T04:38:06.942Z,18.42
2017-06-15T04:39:15.895Z,18.39
2017-06-15T04:40:24.856Z,18.47
2017-06-15T04:41:33.812Z,18.48
2017-06-15T04:42:42.770Z,18.35
2017-06-15T04:43:51.726Z,18.44
2017-06-15T04:45:00.684Z,18.35
2017-06-15T04:46:09.696Z,18.39
2017-06-15T04:47:18.653Z,18.41
2017-06-15T04:48:27.614Z,18.41
2017-06-15T04:49:36.896Z,18.44
2017-06-15T04:50:45.853Z,18.44
2017-06-15T04:51:54.859Z,18.45
2017-06-15T04:53:03.815Z,18.47
2017-06-15T04:54:12.771Z,18.42
2017-06-15T04:55:21.818Z,18.47
2017-06-15T04:56:30.769Z,18.52
2017-06-15T04:57:39.726Z,18.52
2017-06-15T04:58:48.678Z,18.58
2017-06-15T04:59:57.650Z,18.63
2017-06-15T05:01:06.604Z,18.58
2017-06-15T05:02:15.575Z,18.58
2017-06-15T05:03:24.674Z,18.6
2017-06-15T05:04:33.628Z,18.65
2017-06-15T05:05:42.582Z,18.69
2017-06-15T05:06:51.536Z,18.58
2017-06-15T05:08:00.817Z,18.7
2017-06-15T05:09:09.827Z,18.67
2017-06-15T05:10:18.783Z,18.69
2017-06-15T05:11:27.739Z,18.62
2017-06-15T05:12:36.785Z,18.73
2017-06-15T05:13:45.735Z,18.66
2017-06-15T05:14:54.695Z,18.72
2017-06-15T05:16:03.648Z,18.78
2017-06-15T05:17:12.599Z,18.81
2017-06-15T05:18:21.559Z,18.82
2017-06-15T05:19:30.517Z,18.85
2017-06-15T05:20:39.523Z,18.8
2017-06-15T05:21:48.480Z,18.84
2017-06-15T05:22:57.437Z,18.87
2017-06-15T05:24:06.396Z,18.87
2017-06-15T05:25:15.355Z,18.92
2017-06-15T05:26:24.398Z,18.95
2017-06-15T05:27:33.358Z,18.92
2017-06-15T05:28:42.321Z,18.95
2017-06-15T05:29:51.278Z,18.98
2017-06-15T05:31:00.237Z,19.02
2017-06-15T05:32:09.197Z,19.07
2017-06-15T05:33:18.157Z,19.11
2017-06-15T05:34:27.122Z,19.19
2017-06-15T05:35:36.079Z,19.13
2017-06-15T05:36:45.036Z,19.14
2017-06-15T05:37:53.993Z,19.14
2017-06-15T05:39:02.954Z,19.29
2017-06-15T05:40:11.919Z,19.26
2017-06-15T05:41:20.878Z,19.25
2017-06-15T05:42:29.894Z,19.26
2017-06-15T05:43:38.850Z,19.28
2017-06-15T05:44:47.809Z,19.43
2017-06-15T05:45:56.763Z,19.39
2017-06-15T05:47:05.723Z,19.44
2017-06-15T05:48:14.683Z,19.46
2017-06-15T05:49:23.690Z,19.5
2017-06-15T05:50:32.991Z,19.51
2017-06-15T05:51:41.947Z,19.58
2017-06-15T05:52:50.907Z,19.58
2017-06-15T05:53:59.954Z,19.56
2017-06-15T05:55:09.059Z,19.65
2017-06-15T05:56:18.024Z,19.77
2017-06-15T05:57:26.987Z,19.62
2017-06-15T05:58:36.031Z,19.69
2017-06-15T05:59:45.103Z,19.65
2017-06-15T06:00:54.145Z,19.74
2017-06-15T06:02:03.110Z,19.73
2017-06-15T06:03:12.903Z,19.73
2017-06-15T06:04:21.862Z,19.86
2017-06-15T06:05:30.817Z,19.87
2017-06-15T06:06:39.943Z,19.84
2017-06-15T06:07:48.991Z,19.88
2017-06-15T06:08:58.030Z,19.87
2017-06-15T06:10:07.434Z,19.96
2017-06-15T06:11:16.428Z,20.06
2017-06-15T06:12:25.475Z,20.06
2017-06-15T06:13:34.437Z,20.02
2017-06-15T06:14:43.389Z,20.02
2017-06-15T06:15:52.343Z,20.06
2017-06-15T06:17:01.303Z,20.11
2017-06-15T06:18:10.310Z,20.13
2017-06-15T06:19:19.273Z,20.16
2017-06-15T06:20:28.229Z,20.14
2017-06-15T06:21:37.324Z,20.16
2017-06-15T06:22:46.364Z,20.26
2017-06-15T06:23:55.409Z,20.28
2017-06-15T06:25:04.376Z,20.39
2017-06-15T06:26:13.472Z,20.48
2017-06-15T06:27:22.435Z,20.62
2017-06-15T06:28:31.962Z,20.58
2017-06-15T06:29:41.190Z,20.72
2017-06-15T06:30:50.148Z,20.7
2017-06-15T06:31:59.137Z,20.66
2017-06-15T06:33:08.762Z,20.7
2017-06-15T06:34:17.786Z,20.77
2017-06-15T06:35:26.915Z,20.8
2017-06-15T06:36:35.896Z,20.76
2017-06-15T06:37:44.980Z,20.74
2017-06-15T06:38:54.025Z,20.73
2017-06-15T06:40:03.014Z,20.79
2017-06-15T06:41:11.968Z,20.84
2017-06-15T06:42:20.923Z,20.84
2017-06-15T06:43:29.911Z,20.88
2017-06-15T06:44:38.903Z,20.92
2017-06-15T06:45:47.984Z,20.95
2017-06-15T06:46:56.940Z,20.89
2017-06-15T06:48:05.994Z,20.92
2017-06-15T06:49:15.190Z,20.91
2017-06-15T06:50:24.298Z,20.89
2017-06-15T06:51:33.337Z,20.95
2017-06-15T06:52:42.454Z,21.07
2017-06-15T06:53:51.486Z,21.12
2017-06-15T06:55:00.547Z,21.12
2017-06-15T06:56:09.732Z,21.13
2017-06-15T06:57:18.691Z,21.12
2017-06-15T06:58:27.739Z,21.1
2017-06-15T06:59:36.736Z,21.1
2017-06-15T07:00:45.692Z,21.19
2017-06-15T07:01:54.845Z,21.16
2017-06-15T07:03:03.865Z,21.13
2017-06-15T07:04:13.057Z,21.24
2017-06-15T07:05:22.016Z,21.28
2017-06-15T07:06:31.155Z,21.29
2017-06-15T07:07:40.170Z,21.29
2017-06-15T07:08:49.210Z,21.31
2017-06-15T07:09:58.757Z,21.42
2017-06-15T07:11:07.809Z,21.43
2017-06-15T07:12:16.767Z,21.43
2017-06-15T07:13:25.907Z,21.43
2017-06-15T07:14:34.872Z,21.42
2017-06-15T07:15:43.829Z,21.44
2017-06-15T07:16:53.113Z,21.44
2017-06-15T07:18:02.073Z,21.5
2017-06-15T07:19:11.031Z,21.49
2017-06-15T07:20:19.985Z,21.52
2017-06-15T07:21:28.943Z,21.58
2017-06-15T07:22:40.138Z,21.54
2017-06-15T07:23:50.044Z,21.56
2017-06-15T07:24:59.017Z,21.61
2017-06-15T07:26:08.298Z,21.58
2017-06-15T07:27:17.259Z,21.59
2017-06-15T07:28:26.222Z,21.54
2017-06-15T07:29:35.185Z,21.56
2017-06-15T07:30:44.145Z,21.69
2017-06-15T07:31:53.192Z,21.72
2017-06-15T07:33:02.202Z,21.71
2017-06-15T07:34:11.164Z,21.71
2017-06-15T07:35:20.126Z,21.72
2017-06-15T07:36:29.087Z,21.71
2017-06-15T07:37:38.042Z,21.77
2017-06-15T07:38:47.004Z,21.79
2017-06-15T07:39:55.960Z,21.9
2017-06-15T07:41:04.923Z,21.86
2017-06-15T07:42:13.880Z,21.91
2017-06-15T07:43:22.840Z,22.02
2017-06-15T07:44:31.807Z,22.03
2017-06-15T07:45:40.762Z,22.03
2017-06-15T07:46:49.727Z,22.06
2017-06-15T07:47:58.686Z,22.15
2017-06-15T07:49:07.647Z,22.1
2017-06-15T07:50:16.607Z,22.14
2017-06-15T07:51:25.571Z,22.21
2017-06-15T07:52:34.531Z,22.12
2017-06-15T07:53:43.506Z,22.2
2017-06-15T07:54:52.470Z,22.17
2017-06-15T07:56:01.433Z,22.17
2017-06-15T07:57:10.399Z,22.2
2017-06-15T07:58:19.358Z,22.33
2017-06-15T07:59:28.640Z,22.24
2017-06-15T08:00:37.603Z,22.37
2017-06-15T08:01:46.569Z,22.33
2017-06-15T08:02:55.531Z,22.42
2017-06-15T08:04:04.495Z,22.33
2017-06-15T08:05:13.457Z,22.46
2017-06-15T08:06:22.502Z,22.33
2017-06-15T08:07:31.605Z,22.39
2017-06-15T08:08:40.565Z,22.45
2017-06-15T08:09:49.523Z,22.46
2017-06-15T08:10:58.569Z,22.45
2017-06-15T08:12:07.539Z,22.51
2017-06-15T08:13:16.505Z,22.55
2017-06-15T08:14:25.463Z,22.58
2017-06-15T08:15:34.427Z,22.57
2017-06-15T08:16:43.389Z,22.61
2017-06-15T08:17:52.354Z,22.64
2017-06-15T08:19:01.347Z,22.68
2017-06-15T08:20:10.390Z,22.73
2017-06-15T08:21:19.680Z,22.72
2017-06-15T08:22:28.646Z,22.7
2017-06-15T08:23:37.604Z,22.72
2017-06-15T08:24:46.564Z,22.72
2017-06-15T08:25:55.526Z,22.68
2017-06-15T08:27:04.486Z,22.77
2017-06-15T08:28:13.447Z,22.85
2017-06-15T08:29:22.405Z,22.79
2017-06-15T08:30:31.414Z,22.94
2017-06-15T08:31:40.377Z,22.91
2017-06-15T08:32:49.365Z,22.95
2017-06-15T08:33:58.343Z,23.02
2017-06-15T08:35:07.326Z,23.01
2017-06-15T08:36:16.363Z,23.09
2017-06-15T08:37:25.346Z,23.12
2017-06-15T08:38:34.334Z,23.12
2017-06-15T08:39:43.318Z,23.17
2017-06-15T08:40:52.642Z,23.25
2017-06-15T08:42:02.014Z,23.23
2017-06-15T08:43:10.999Z,23.28
2017-06-15T08:44:19.961Z,23.4
2017-06-15T08:45:28.925Z,23.46
2017-06-15T08:46:37.906Z,23.43
2017-06-15T08:47:46.887Z,23.48
2017-06-15T08:48:55.868Z,23.6
2017-06-15T08:50:04.862Z,23.63
2017-06-15T08:51:13.850Z,23.61
2017-06-15T08:52:22.879Z,23.72
2017-06-15T08:53:31.912Z,23.63
2017-06-15T08:54:40.892Z,23.66
2017-06-15T08:55:49.877Z,23.69
2017-06-15T08:56:58.863Z,23.78
2017-06-15T08:58:07.877Z,23.84
2017-06-15T08:59:16.916Z,23.9
2017-06-15T09:00:25.898Z,23.91
2017-06-15T09:01:34.883Z,23.98
2017-06-15T09:02:43.869Z,24.08
2017-06-15T09:03:52.890Z,24.05
2017-06-15T09:05:01.921Z,24.1
2017-06-15T09:06:10.901Z,24.02
2017-06-15T09:07:19.880Z,23.97
2017-06-15T09:08:28.866Z,24.05
2017-06-15T09:09:37.950Z,24.06
2017-06-15T09:10:46.986Z,24.12
2017-06-15T09:11:55.964Z,24.21
2017-06-15T09:13:04.952Z,24.15
2017-06-15T09:14:13.938Z,24.16
2017-06-15T09:15:22.942Z,24.15
2017-06-15T09:16:31.988Z,24.22
2017-06-15T09:17:40.984Z,24.18
2017-06-15T09:18:49.962Z,24.24
2017-06-15T09:19:58.974Z,24.21
2017-06-15T09:21:07.988Z,24.12
2017-06-15T09:22:16.974Z,24.1
2017-06-15T09:23:25.957Z,24.15
2017-06-15T09:24:34.941Z,24.16
2017-06-15T09:25:43.924Z,24.16
2017-06-15T09:26:52.909Z,24.22
2017-06-15T09:28:01.941Z,24.15
2017-06-15T09:29:11.006Z,24.18
2017-06-15T09:30:19.980Z,24.16
2017-06-15T09:31:28.943Z,24.16
2017-06-15T09:32:37.906Z,24.24
2017-06-15T09:33:46.865Z,24.12
2017-06-15T09:34:55.823Z,24.22
2017-06-15T09:36:04.855Z,24.18
2017-06-15T09:37:13.817Z,24.12
2017-06-15T09:38:22.784Z,24.21
2017-06-15T09:39:31.802Z,24.22
2017-06-15T09:40:40.770Z,24.24
2017-06-15T09:41:50.380Z,24.22
2017-06-15T09:42:59.582Z,24.21
2017-06-15T09:44:08.545Z,24.25
2017-06-15T09:45:17.598Z,24.24
2017-06-15T09:46:26.562Z,24.24
2017-06-15T09:47:35.845Z,24.3
2017-06-15T09:48:44.824Z,24.27
2017-06-15T09:49:53.789Z,24.24
2017-06-15T09:51:02.799Z,24.27
2017-06-15T09:52:11.763Z,24.28
2017-06-15T09:53:20.816Z,24.3
2017-06-15T09:54:29.778Z,24.24
2017-06-15T09:55:39.061Z,24.32
2017-06-15T09:56:48.021Z,24.27
2017-06-15T09:57:57.312Z,24.34
2017-06-15T09:59:06.276Z,24.37
2017-06-15T10:00:15.241Z,24.42
2017-06-15T10:01:24.208Z,24.42
2017-06-15T10:02:33.249Z,24.55
2017-06-15T10:03:42.213Z,24.53
2017-06-15T10:04:51.185Z,24.58
2017-06-15T10:06:00.304Z,24.5
2017-06-15T10:07:09.353Z,24.55
2017-06-15T10:08:18.369Z,24.45
2017-06-15T10:09:27.653Z,24.58
2017-06-15T10:10:36.611Z,24.58
2017-06-15T10:11:45.575Z,24.61
2017-06-15T10:12:54.543Z,24.64
2017-06-15T10:14:03.557Z,24.61
2017-06-15T10:15:12.526Z,24.6
2017-06-15T10:16:21.493Z,24.58
2017-06-15T10:17:30.454Z,24.52
2017-06-15T10:18:39.418Z,24.58
2017-06-15T10:19:48.435Z,24.62
2017-06-15T10:20:57.396Z,24.58
2017-06-15T10:22:06.357Z,24.73
2017-06-15T10:23:15.320Z,24.55
2017-06-15T10:24:24.274Z,24.58
2017-06-15T10:25:33.234Z,24.64
2017-06-15T10:26:42.194Z,24.64
2017-06-15T10:27:51.157Z,24.77
2017-06-15T10:29:00.118Z,24.77
2017-06-15T10:30:09.081Z,24.84
2017-06-15T10:31:18.043Z,24.8
2017-06-15T10:32:27.005Z,24.87
2017-06-15T10:33:35.963Z,24.9
2017-06-15T10:34:44.923Z,24.88
2017-06-15T10:35:53.883Z,24.98
2017-06-15T10:37:02.981Z,24.87
2017-06-15T10:38:12.264Z,24.88
2017-06-15T10:39:21.224Z,25.05
2017-06-15T10:40:30.504Z,24.99
2017-06-15T10:41:39.460Z,25.02
2017-06-15T10:42:49.107Z,25.02
2017-06-15T10:43:58.076Z,25.18
2017-06-15T10:45:07.039Z,25.1
2017-06-15T10:46:16.002Z,25.13
2017-06-15T10:47:24.961Z,25.2
2017-06-15T10:48:33.972Z,25.13
2017-06-15T10:49:42.937Z,25.08
2017-06-15T10:50:51.985Z,25.13
2017-06-15T10:52:00.956Z,25.13
2017-06-15T10:53:09.917Z,25.13
2017-06-15T10:54:19.247Z,25.08
2017-06-15T10:55:29.142Z,25.13
2017-06-15T10:56:38.398Z,25.21
2017-06-15T10:57:47.362Z,25.21
2017-06-15T10:58:56.327Z,25.24
2017-06-15T11:00:05.287Z,25.21
2017-06-15T11:01:14.333Z,25.24
2017-06-15T11:02:23.297Z,25.15
2017-06-15T11:03:32.256Z,25.2
2017-06-15T11:04:41.219Z,25.21
2017-06-15T11:05:50.197Z,25.21
2017-06-15T11:06:59.484Z,25.23
2017-06-15T11:08:08.449Z,25.24
2017-06-15T11:09:17.412Z,25.23
2017-06-15T11:10:26.463Z,25.24
2017-06-15T11:11:35.560Z,25.23
2017-06-15T11:12:44.518Z,25.28
2017-06-15T11:13:53.480Z,25.24
2017-06-15T11:15:02.436Z,25.21
2017-06-15T11:16:11.397Z,25.24
2017-06-15T11:17:20.358Z,25.27
2017-06-15T11:18:29.317Z,25.2
2017-06-15T11:19:38.277Z,25.27
2017-06-15T11:20:47.237Z,25.25
2017-06-15T11:21:56.203Z,25.32
2017-06-15T11:23:05.168Z,25.35
2017-06-15T11:24:14.217Z,25.3
2017-06-15T11:25:23.186Z,25.32
2017-06-15T11:26:32.151Z,25.28
2017-06-15T11:27:41.207Z,25.38
2017-06-15T11:28:50.182Z,25.35
2017-06-15T11:29:59.461Z,25.35
2017-06-15T11:31:08.450Z,25.33
2017-06-15T11:32:17.410Z,25.35
2017-06-15T11:33:26.378Z,25.32
2017-06-15T11:34:35.386Z,25.42
2017-06-15T11:35:44.436Z,25.36
2017-06-15T11:36:53.406Z,25.4
2017-06-15T11:38:02.362Z,25.42
2017-06-15T11:39:11.324Z,25.47
2017-06-15T11:40:20.294Z,25.46
2017-06-15T11:41:29.439Z,25.47
2017-06-15T11:42:38.400Z,25.54
2017-06-15T11:43:47.363Z,25.52
2017-06-15T11:44:56.417Z,25.58
2017-06-15T11:46:05.553Z,25.61
2017-06-15T11:47:14.512Z,25.52
2017-06-15T11:48:23.470Z,25.54
2017-06-15T11:49:32.431Z,25.55
2017-06-15T11:50:41.397Z,25.62
2017-06-15T11:51:50.362Z,25.51
2017-06-15T11:52:59.327Z,25.57
2017-06-15T11:54:08.288Z,25.57
2017-06-15T11:55:17.250Z,25.65
2017-06-15T11:56:26.209Z,25.7
2017-06-15T11:57:35.224Z,25.64
2017-06-15T11:58:44.276Z,25.76
2017-06-15T11:59:54.542Z,25.83
2017-06-15T12:01:03.507Z,25.82
2017-06-15T12:02:12.471Z,25.79
2017-06-15T12:03:21.435Z,25.85
2017-06-15T12:04:30.393Z,25.83
2017-06-15T12:05:39.384Z,25.95
2017-06-15T12:06:48.479Z,25.88
2017-06-15T12:07:57.441Z,25.91
2017-06-15T12:09:06.410Z,25.88
2017-06-15T12:10:15.391Z,25.9
2017-06-15T12:11:24.685Z,25.94
2017-06-15T12:12:33.654Z,25.83
2017-06-15T12:13:42.641Z,25.94
2017-06-15T12:14:51.757Z,25.87
2017-06-15T12:16:00.718Z,25.82
2017-06-15T12:17:09.675Z,25.9
2017-06-15T12:18:18.723Z,25.92
2017-06-15T12:19:27.689Z,25.91
2017-06-15T12:20:41.422Z,25.91
2017-06-15T12:22:04.825Z,25.91
2017-06-15T12:23:21.152Z,25.8
2017-06-15T12:24:30.284Z,25.83
2017-06-15T12:25:39.536Z,25.87
2017-06-15T12:26:48.894Z,25.9
2017-06-15T12:27:57.937Z,25.94
2017-06-15T12:29:07.194Z,25.91
2017-06-15T12:30:16.633Z,25.87
2017-06-15T12:31:25.767Z,25.91
2017-06-15T12:32:34.938Z,25.83
2017-06-15T12:33:43.912Z,25.85
2017-06-15T12:34:52.914Z,25.91
2017-06-15T12:36:02.011Z,25.85
2017-06-15T12:37:11.060Z,25.82
2017-06-15T12:38:20.031Z,25.95
2017-06-15T12:39:29.030Z,25.88
2017-06-15T12:40:38.005Z,25.88
2017-06-15T12:41:47.054Z,25.83
2017-06-15T12:42:56.018Z,25.92
2017-06-15T12:44:05.093Z,25.9
2017-06-15T12:45:14.142Z,25.95
2017-06-15T12:46:23.106Z,25.87
2017-06-15T12:47:32.107Z,25.9
2017-06-15T12:48:41.249Z,25.91
2017-06-15T12:49:50.331Z,25.94
2017-06-15T12:50:59.387Z,25.88
2017-06-15T12:52:08.763Z,25.98
2017-06-15T12:53:17.937Z,26.01
2017-06-15T12:54:26.898Z,26.06
2017-06-15T12:55:35.897Z,26.09
2017-06-15T12:56:45.013Z,26.09
2017-06-15T12:57:53.975Z,26.02
2017-06-15T12:59:02.940Z,26.06
2017-06-15T13:00:11.904Z,26.06
2017-06-15T13:01:20.867Z,26.1
2017-06-15T13:02:29.830Z,26.12
2017-06-15T13:03:38.793Z,26.05
2017-06-15T13:04:47.843Z,26.15
2017-06-15T13:05:57.218Z,26.12
2017-06-15T13:07:06.218Z,26.06
2017-06-15T13:08:15.393Z,26.21
2017-06-15T13:09:24.355Z,26.09
2017-06-15T13:10:33.472Z,26.12
2017-06-15T13:11:42.432Z,26.18
2017-06-15T13:12:51.390Z,26.17
2017-06-15T13:14:00.371Z,26.15
2017-06-15T13:15:09.370Z,26.15
2017-06-15T13:16:18.334Z,26.13
2017-06-15T13:17:27.294Z,26.13
2017-06-15T13:18:36.369Z,26.12
2017-06-15T13:19:45.655Z,26.07
2017-06-15T13:20:54.691Z,26.2
2017-06-15T13:22:03.794Z,26.1
2017-06-15T13:23:12.876Z,26.07
2017-06-15T13:24:22.157Z,26.12
2017-06-15T13:25:31.213Z,26.2
2017-06-15T13:26:40.739Z,26.17
2017-06-15T13:27:49.700Z,26.09
2017-06-15T13:28:58.796Z,26.06
2017-06-15T13:30:07.897Z,26.01
2017-06-15T13:31:16.998Z,25.91
2017-06-15T13:32:26.246Z,25.82
2017-06-15T13:33:35.208Z,25.7
2017-06-15T13:34:44.276Z,25.7
2017-06-15T13:35:53.348Z,25.72
2017-06-15T13:37:02.426Z,25.62
2017-06-15T13:38:11.432Z,25.58
2017-06-15T13:39:20.550Z,25.61
2017-06-15T13:40:29.511Z,25.61
2017-06-15T13:41:38.485Z,25.55
2017-06-15T13:42:47.512Z,25.54
2017-06-15T13:43:56.518Z,25.54
2017-06-15T13:45:05.579Z,25.54
2017-06-15T13:46:14.543Z,25.58
2017-06-15T13:47:23.552Z,25.7
2017-06-15T13:48:32.607Z,25.62
2017-06-15T13:49:41.712Z,25.58
2017-06-15T13:50:50.944Z,25.64
2017-06-15T13:52:00.447Z,25.54
2017-06-15T13:53:09.459Z,25.6
2017-06-15T13:54:18.455Z,25.62
2017-06-15T13:55:27.415Z,25.7
2017-06-15T13:56:36.392Z,25.67
2017-06-15T13:57:45.456Z,25.65
2017-06-15T13:58:54.754Z,25.65
2017-06-15T14:00:03.717Z,25.62
2017-06-15T14:01:12.745Z,25.62
2017-06-15T14:02:21.707Z,25.57
2017-06-15T14:03:30.756Z,25.6
2017-06-15T14:04:39.889Z,25.54
2017-06-15T14:05:48.854Z,25.64
2017-06-15T14:06:57.820Z,25.55
2017-06-15T14:08:06.788Z,25.57
2017-06-15T14:09:15.754Z,25.65
2017-06-15T14:10:24.720Z,25.6
2017-06-15T14:11:33.681Z,25.55
2017-06-15T14:12:42.676Z,25.55
2017-06-15T14:13:51.642Z,25.58
2017-06-15T14:15:00.608Z,25.52
2017-06-15T14:16:09.573Z,25.62
2017-06-15T14:17:18.531Z,25.55
2017-06-15T14:18:27.501Z,25.54
2017-06-15T14:19:36.464Z,25.55
2017-06-15T14:20:45.445Z,25.54
2017-06-15T14:21:54.916Z,25.57
2017-06-15T14:23:03.964Z,25.58
2017-06-15T14:24:12.993Z,25.7
2017-06-15T14:25:22.052Z,25.72
2017-06-15T14:26:31.038Z,25.64
2017-06-15T14:27:39.998Z,25.7
2017-06-15T14:28:48.963Z,25.72
2017-06-15T14:29:58.013Z,25.69
2017-06-15T14:31:06.977Z,25.65
2017-06-15T14:32:15.941Z,25.69
2017-06-15T14:33:24.903Z,25.7
2017-06-15T14:34:33.963Z,25.72
2017-06-15T14:35:42.927Z,25.76
2017-06-15T14:36:52.027Z,25.64
2017-06-15T14:38:00.990Z,25.58
2017-06-15T14:39:10.113Z,25.55
2017-06-15T14:40:19.202Z,25.57
2017-06-15T14:41:28.303Z,25.61
2017-06-15T14:42:37.322Z,25.52
2017-06-15T14:43:46.287Z,25.55
2017-06-15T14:44:55.251Z,25.6
2017-06-15T14:46:04.211Z,25.57
2017-06-15T14:47:13.177Z,25.6
2017-06-15T14:48:22.141Z,25.65
2017-06-15T14:49:31.124Z,25.65
2017-06-15T14:50:40.085Z,25.67
2017-06-15T14:51:49.227Z,25.6
2017-06-15T14:52:58.274Z,25.58